Holyoke, CO

10:39 AM MDT on June 03, 2015 (GMT -0600)
Akron-Washington County | | Change Station
CLOSE
Current Station
Airport
Location: Akron,
Elevation: 4662 ft
Nearby Weather Stations

Elev 4662 ft 40.17 °N, 103.21 °W | Updated 13 minutes ago

Clear
Clear
67 °F
Feels Like 67 °F
N
5
Wind Variable Wind from ENE

Today
High -- | Low -- °F
--% Chance of Precip.
Yesterday
High -- | Low -- °F
Precip. -- in
5:19 AM 8:15 PM
Full, 99% visible
Pressure 30.05 in
Visibility 10.0 miles
Clouds Overcast 2900 ft
Dew Point 54 °F
Humidity 63%
Rainfall 0.00 in
Snow Depth Not available.
UV 3 out of 12
Pollen 8.00 out of 12
Air Quality Not available.
Flu Activity Sporadic
SPECI KAKO 031626Z AUTO 07004KT 10SM OVC029 19/12 A3005 RMK AO2 T01940122

More Conditions Fewer Conditions

Pressure 30.05 in
Visibility 10.0 miles
Clouds Overcast 2900 ft
Dew Point 54 °F
Humidity 63%
Rainfall 0.00 in
Snow Depth Not available.
UV 3 out of 12
Pollen 8.00 out of 12
Air Quality Not available.
Flu Activity Sporadic
SPECI KAKO 031626Z AUTO 07004KT 10SM OVC029 19/12 A3005 RMK AO2 T01940122

More Conditions Fewer Conditions

10-Day Weather Forecast

×

Almanac

Astronomy

Jun. 03, 2015 Rise Set
Actual Time
Civil Twilight
Nautical Twilight
Astronomical Twilight
Moon
Length of Visible Light
Length of Day
Tomorrow will be .
, % of the Moon is Illuminated

Today's Extremes

State Highs State Lows

Community

WunderPhotos

Upload Photos

1,826,254 photos uploaded!

WunderBlogs® & News

Nearby

Air Quality

  Air Quality AQ Index Pollutant
Not available.

Snow Depth

Station Depth Elevation

Earthquake Activity

City Distance Mag. Time & Date
Minimum magnitude displayed is 2.5.

Coastal Water Temperatures

Place Temperature

Stations

Nearby Weather Stations

Station Location Temp. Windchill Dew Point Humidity Wind Precip. Elev Updated Type